sensor_id;sensor_type;location;lat;lon;timestamp;P1;durP1;ratioP1;P2;durP2;ratioP2
2624;SDS011;1322;53.256;10.386;2023-04-06T00:00:55;9.67;;;4.63;;
2624;SDS011;1322;53.256;10.386;2023-04-06T00:03:21;8.10;;;6.00;;
2624;SDS011;1322;53.256;10.386;2023-04-06T00:05:47;8.07;;;4.50;;
2624;SDS011;1322;53.256;10.386;2023-04-06T00:08:13;7.23;;;5.33;;
2624;SDS011;1322;53.256;10.386;2023-04-06T00:10:39;8.30;;;5.30;;
2624;SDS011;1322;53.256;10.386;2023-04-06T00:13:05;9.60;;;5.00;;
2624;SDS011;1322;53.256;10.386;2023-04-06T00:15:32;7.93;;;5.30;;
2624;SDS011;1322;53.256;10.386;2023-04-06T00:17:57;10.13;;;5.77;;
2624;SDS011;1322;53.256;10.386;2023-04-06T00:20:23;8.10;;;5.00;;
2624;SDS011;1322;53.256;10.386;2023-04-06T00:22:49;7.43;;;5.10;;
2624;SDS011;1322;53.256;10.386;2023-04-06T00:25:15;6.23;;;4.90;;
2624;SDS011;1322;53.256;10.386;2023-04-06T00:27:41;7.83;;;6.10;;
2624;SDS011;1322;53.256;10.386;2023-04-06T00:30:07;8.47;;;5.40;;
2624;SDS011;1322;53.256;10.386;2023-04-06T00:32:34;7.50;;;6.03;;
2624;SDS011;1322;53.256;10.386;2023-04-06T00:35:04;7.57;;;5.30;;
2624;SDS011;1322;53.256;10.386;2023-04-06T00:37:30;5.73;;;4.37;;
2624;SDS011;1322;53.256;10.386;2023-04-06T00:39:56;5.93;;;5.10;;
2624;SDS011;1322;53.256;10.386;2023-04-06T00:42:22;6.83;;;5.23;;
2624;SDS011;1322;53.256;10.386;2023-04-06T00:44:55;9.40;;;5.03;;
2624;SDS011;1322;53.256;10.386;2023-04-06T00:47:23;6.07;;;5.13;;
2624;SDS011;1322;53.256;10.386;2023-04-06T00:49:50;5.80;;;4.60;;
2624;SDS011;1322;53.256;10.386;2023-04-06T00:52:17;5.60;;;4.50;;
2624;SDS011;1322;53.256;10.386;2023-04-06T00:54:43;9.37;;;5.30;;
2624;SDS011;1322;53.256;10.386;2023-04-06T00:57:10;6.80;;;4.87;;
2624;SDS011;1322;53.256;10.386;2023-04-06T00:59:36;5.73;;;5.13;;
2624;SDS011;1322;53.256;10.386;2023-04-06T01:02:02;7.07;;;5.53;;
2624;SDS011;1322;53.256;10.386;2023-04-06T01:04:28;5.70;;;4.20;;
2624;SDS011;1322;53.256;10.386;2023-04-06T01:06:53;11.40;;;6.10;;
2624;SDS011;1322;53.256;10.386;2023-04-06T01:09:19;9.60;;;5.50;;
2624;SDS011;1322;53.256;10.386;2023-04-06T01:11:45;6.77;;;5.40;;
2624;SDS011;1322;53.256;10.386;2023-04-06T01:14:14;7.20;;;4.97;;
2624;SDS011;1322;53.256;10.386;2023-04-06T01:16:40;6.60;;;5.17;;
2624;SDS011;1322;53.256;10.386;2023-04-06T01:19:10;7.43;;;5.37;;
2624;SDS011;1322;53.256;10.386;2023-04-06T01:21:37;7.90;;;6.37;;
2624;SDS011;1322;53.256;10.386;2023-04-06T01:24:04;7.67;;;4.50;;
2624;SDS011;1322;53.256;10.386;2023-04-06T01:26:30;7.63;;;5.03;;
2624;SDS011;1322;53.256;10.386;2023-04-06T01:28:57;6.17;;;4.90;;
2624;SDS011;1322;53.256;10.386;2023-04-06T01:31:25;8.93;;;5.60;;
2624;SDS011;1322;53.256;10.386;2023-04-06T01:33:52;7.00;;;5.50;;
2624;SDS011;1322;53.256;10.386;2023-04-06T01:36:18;10.97;;;4.70;;
2624;SDS011;1322;53.256;10.386;2023-04-06T01:38:44;8.50;;;5.87;;
2624;SDS011;1322;53.256;10.386;2023-04-06T01:41:10;7.83;;;4.67;;
2624;SDS011;1322;53.256;10.386;2023-04-06T01:43:36;5.73;;;4.70;;
2624;SDS011;1322;53.256;10.386;2023-04-06T01:46:02;5.87;;;4.77;;
2624;SDS011;1322;53.256;10.386;2023-04-06T01:48:28;6.87;;;4.50;;
2624;SDS011;1322;53.256;10.386;2023-04-06T01:50:54;7.43;;;4.90;;
2624;SDS011;1322;53.256;10.386;2023-04-06T01:53:20;7.77;;;5.27;;
2624;SDS011;1322;53.256;10.386;2023-04-06T01:55:46;8.13;;;4.80;;
2624;SDS011;1322;53.256;10.386;2023-04-06T01:58:12;6.53;;;4.83;;
2624;SDS011;1322;53.256;10.386;2023-04-06T02:00:38;5.30;;;4.60;;
2624;SDS011;1322;53.256;10.386;2023-04-06T02:03:04;8.13;;;4.63;;
2624;SDS011;1322;53.256;10.386;2023-04-06T02:05:31;5.60;;;4.17;;
2624;SDS011;1322;53.256;10.386;2023-04-06T02:08:02;7.03;;;5.77;;
2624;SDS011;1322;53.256;10.386;2023-04-06T02:10:31;6.10;;;4.87;;
2624;SDS011;1322;53.256;10.386;2023-04-06T02:12:57;5.43;;;3.90;;
2624;SDS011;1322;53.256;10.386;2023-04-06T02:15:23;5.77;;;4.70;;
2624;SDS011;1322;53.256;10.386;2023-04-06T02:17:50;9.17;;;4.80;;
2624;SDS011;1322;53.256;10.386;2023-04-06T02:20:16;6.90;;;4.83;;
2624;SDS011;1322;53.256;10.386;2023-04-06T02:22:42;6.03;;;4.37;;
2624;SDS011;1322;53.256;10.386;2023-04-06T02:25:08;4.90;;;4.17;;
2624;SDS011;1322;53.256;10.386;2023-04-06T02:27:33;6.87;;;4.90;;
2624;SDS011;1322;53.256;10.386;2023-04-06T02:30:00;6.53;;;4.30;;
2624;SDS011;1322;53.256;10.386;2023-04-06T02:32:26;6.70;;;4.93;;
2624;SDS011;1322;53.256;10.386;2023-04-06T02:34:51;7.47;;;5.70;;
2624;SDS011;1322;53.256;10.386;2023-04-06T02:37:17;6.80;;;4.40;;
2624;SDS011;1322;53.256;10.386;2023-04-06T02:39:43;8.50;;;4.00;;
2624;SDS011;1322;53.256;10.386;2023-04-06T02:42:08;5.77;;;4.33;;
2624;SDS011;1322;53.256;10.386;2023-04-06T02:44:34;5.00;;;4.50;;
2624;SDS011;1322;53.256;10.386;2023-04-06T02:47:00;8.50;;;5.07;;
2624;SDS011;1322;53.256;10.386;2023-04-06T02:49:26;7.33;;;5.20;;
2624;SDS011;1322;53.256;10.386;2023-04-06T02:51:51;7.87;;;4.73;;
2624;SDS011;1322;53.256;10.386;2023-04-06T02:54:17;6.90;;;4.33;;
2624;SDS011;1322;53.256;10.386;2023-04-06T02:56:43;5.33;;;4.63;;
2624;SDS011;1322;53.256;10.386;2023-04-06T02:59:09;5.60;;;4.03;;
2624;SDS011;1322;53.256;10.386;2023-04-06T03:01:35;6.13;;;4.20;;
2624;SDS011;1322;53.256;10.386;2023-04-06T03:04:01;5.90;;;5.23;;
2624;SDS011;1322;53.256;10.386;2023-04-06T03:06:27;5.40;;;4.80;;
2624;SDS011;1322;53.256;10.386;2023-04-06T03:08:53;6.50;;;4.60;;
2624;SDS011;1322;53.256;10.386;2023-04-06T03:11:18;6.10;;;4.63;;
2624;SDS011;1322;53.256;10.386;2023-04-06T03:13:44;5.13;;;4.30;;
2624;SDS011;1322;53.256;10.386;2023-04-06T03:16:10;6.37;;;4.67;;
2624;SDS011;1322;53.256;10.386;2023-04-06T03:18:35;5.73;;;4.77;;
2624;SDS011;1322;53.256;10.386;2023-04-06T03:21:01;6.17;;;4.37;;
2624;SDS011;1322;53.256;10.386;2023-04-06T03:23:27;4.97;;;4.30;;
2624;SDS011;1322;53.256;10.386;2023-04-06T03:25:52;7.07;;;4.93;;
2624;SDS011;1322;53.256;10.386;2023-04-06T03:28:18;7.30;;;4.50;;
2624;SDS011;1322;53.256;10.386;2023-04-06T03:30:44;5.13;;;4.63;;
2624;SDS011;1322;53.256;10.386;2023-04-06T03:33:10;8.77;;;4.50;;
2624;SDS011;1322;53.256;10.386;2023-04-06T03:35:36;6.60;;;5.30;;
2624;SDS011;1322;53.256;10.386;2023-04-06T03:38:02;9.73;;;5.33;;
2624;SDS011;1322;53.256;10.386;2023-04-06T03:40:28;10.10;;;5.80;;
2624;SDS011;1322;53.256;10.386;2023-04-06T03:42:55;7.93;;;5.30;;
2624;SDS011;1322;53.256;10.386;2023-04-06T03:45:20;7.10;;;5.07;;
2624;SDS011;1322;53.256;10.386;2023-04-06T03:47:46;6.40;;;5.03;;
2624;SDS011;1322;53.256;10.386;2023-04-06T03:50:12;7.07;;;5.33;;
2624;SDS011;1322;53.256;10.386;2023-04-06T03:52:38;5.33;;;4.80;;
2624;SDS011;1322;53.256;10.386;2023-04-06T03:55:03;5.60;;;4.40;;
2624;SDS011;1322;53.256;10.386;2023-04-06T03:57:30;8.80;;;5.33;;
2624;SDS011;1322;53.256;10.386;2023-04-06T03:59:58;13.63;;;5.37;;
2624;SDS011;1322;53.256;10.386;2023-04-06T04:02:24;9.03;;;6.67;;
2624;SDS011;1322;53.256;10.386;2023-04-06T04:04:50;6.93;;;5.63;;
2624;SDS011;1322;53.256;10.386;2023-04-06T04:07:16;7.17;;;5.47;;
2624;SDS011;1322;53.256;10.386;2023-04-06T04:09:41;6.20;;;4.90;;
2624;SDS011;1322;53.256;10.386;2023-04-06T04:12:07;7.10;;;5.33;;
2624;SDS011;1322;53.256;10.386;2023-04-06T04:14:33;6.23;;;5.03;;
2624;SDS011;1322;53.256;10.386;2023-04-06T04:16:58;8.23;;;5.03;;
2624;SDS011;1322;53.256;10.386;2023-04-06T04:19:24;5.97;;;5.37;;
2624;SDS011;1322;53.256;10.386;2023-04-06T04:21:50;5.90;;;4.53;;
2624;SDS011;1322;53.256;10.386;2023-04-06T04:24:15;6.00;;;5.03;;
2624;SDS011;1322;53.256;10.386;2023-04-06T04:26:41;7.57;;;5.40;;
2624;SDS011;1322;53.256;10.386;2023-04-06T04:29:07;9.57;;;5.60;;
2624;SDS011;1322;53.256;10.386;2023-04-06T04:31:33;7.87;;;5.80;;
2624;SDS011;1322;53.256;10.386;2023-04-06T04:33:59;7.20;;;5.53;;
2624;SDS011;1322;53.256;10.386;2023-04-06T04:36:25;7.97;;;5.70;;
2624;SDS011;1322;53.256;10.386;2023-04-06T04:38:51;9.57;;;6.60;;
2624;SDS011;1322;53.256;10.386;2023-04-06T04:41:17;7.83;;;6.60;;
2624;SDS011;1322;53.256;10.386;2023-04-06T04:43:43;9.90;;;7.00;;
2624;SDS011;1322;53.256;10.386;2023-04-06T04:46:09;9.27;;;6.30;;
2624;SDS011;1322;53.256;10.386;2023-04-06T04:48:35;9.50;;;7.00;;
2624;SDS011;1322;53.256;10.386;2023-04-06T04:51:01;7.73;;;6.93;;
2624;SDS011;1322;53.256;10.386;2023-04-06T04:53:26;7.00;;;5.80;;
2624;SDS011;1322;53.256;10.386;2023-04-06T04:55:52;8.77;;;6.53;;
2624;SDS011;1322;53.256;10.386;2023-04-06T04:58:18;8.47;;;6.10;;
2624;SDS011;1322;53.256;10.386;2023-04-06T05:00:45;9.50;;;8.60;;
2624;SDS011;1322;53.256;10.386;2023-04-06T05:03:14;8.60;;;6.40;;
2624;SDS011;1322;53.256;10.386;2023-04-06T05:05:45;11.63;;;6.77;;
2624;SDS011;1322;53.256;10.386;2023-04-06T05:08:11;6.70;;;5.60;;
2624;SDS011;1322;53.256;10.386;2023-04-06T05:10:37;16.10;;;7.37;;
2624;SDS011;1322;53.256;10.386;2023-04-06T05:13:03;10.93;;;7.00;;
2624;SDS011;1322;53.256;10.386;2023-04-06T05:15:28;11.20;;;6.60;;
2624;SDS011;1322;53.256;10.386;2023-04-06T05:17:55;11.40;;;7.60;;
2624;SDS011;1322;53.256;10.386;2023-04-06T05:20:20;20.53;;;7.30;;
2624;SDS011;1322;53.256;10.386;2023-04-06T05:22:46;11.23;;;8.50;;
2624;SDS011;1322;53.256;10.386;2023-04-06T05:25:12;14.40;;;7.60;;
2624;SDS011;1322;53.256;10.386;2023-04-06T05:27:38;10.40;;;8.17;;
2624;SDS011;1322;53.256;10.386;2023-04-06T05:30:05;9.53;;;8.00;;
2624;SDS011;1322;53.256;10.386;2023-04-06T05:32:31;8.10;;;7.03;;
2624;SDS011;1322;53.256;10.386;2023-04-06T05:34:57;19.87;;;9.87;;
2624;SDS011;1322;53.256;10.386;2023-04-06T05:37:22;12.20;;;9.00;;
2624;SDS011;1322;53.256;10.386;2023-04-06T05:39:48;9.03;;;7.93;;
2624;SDS011;1322;53.256;10.386;2023-04-06T05:42:14;16.63;;;8.40;;
2624;SDS011;1322;53.256;10.386;2023-04-06T05:44:40;10.63;;;8.80;;
2624;SDS011;1322;53.256;10.386;2023-04-06T05:47:06;11.10;;;8.17;;
2624;SDS011;1322;53.256;10.386;2023-04-06T05:49:32;10.20;;;7.80;;
2624;SDS011;1322;53.256;10.386;2023-04-06T05:51:57;10.70;;;7.60;;
2624;SDS011;1322;53.256;10.386;2023-04-06T05:54:23;7.93;;;6.63;;
2624;SDS011;1322;53.256;10.386;2023-04-06T05:56:49;10.97;;;7.97;;
2624;SDS011;1322;53.256;10.386;2023-04-06T05:59:15;9.60;;;7.13;;
2624;SDS011;1322;53.256;10.386;2023-04-06T06:01:41;10.57;;;7.30;;
2624;SDS011;1322;53.256;10.386;2023-04-06T06:04:06;11.63;;;6.73;;
2624;SDS011;1322;53.256;10.386;2023-04-06T06:06:32;13.33;;;6.40;;
2624;SDS011;1322;53.256;10.386;2023-04-06T06:08:58;8.27;;;5.83;;
2624;SDS011;1322;53.256;10.386;2023-04-06T06:11:28;7.00;;;6.30;;
2624;SDS011;1322;53.256;10.386;2023-04-06T06:13:54;10.10;;;6.23;;
2624;SDS011;1322;53.256;10.386;2023-04-06T06:16:19;7.03;;;5.27;;
2624;SDS011;1322;53.256;10.386;2023-04-06T06:18:45;7.13;;;5.83;;
2624;SDS011;1322;53.256;10.386;2023-04-06T06:21:11;6.80;;;5.47;;
2624;SDS011;1322;53.256;10.386;2023-04-06T06:23:37;6.07;;;4.47;;
2624;SDS011;1322;53.256;10.386;2023-04-06T06:26:03;7.00;;;5.13;;
2624;SDS011;1322;53.256;10.386;2023-04-06T06:28:30;5.70;;;5.00;;
2624;SDS011;1322;53.256;10.386;2023-04-06T06:30:55;7.70;;;5.20;;
2624;SDS011;1322;53.256;10.386;2023-04-06T06:33:21;7.97;;;4.93;;
2624;SDS011;1322;53.256;10.386;2023-04-06T06:35:47;5.47;;;4.93;;
2624;SDS011;1322;53.256;10.386;2023-04-06T06:38:16;6.30;;;5.07;;
2624;SDS011;1322;53.256;10.386;2023-04-06T06:40:42;6.90;;;5.20;;
2624;SDS011;1322;53.256;10.386;2023-04-06T06:43:07;5.80;;;4.93;;
2624;SDS011;1322;53.256;10.386;2023-04-06T06:45:33;5.70;;;4.40;;
2624;SDS011;1322;53.256;10.386;2023-04-06T06:47:59;4.30;;;3.90;;
2624;SDS011;1322;53.256;10.386;2023-04-06T06:50:25;6.97;;;4.67;;
2624;SDS011;1322;53.256;10.386;2023-04-06T06:52:50;8.33;;;4.83;;
2624;SDS011;1322;53.256;10.386;2023-04-06T06:55:16;10.03;;;4.30;;
2624;SDS011;1322;53.256;10.386;2023-04-06T06:57:44;7.40;;;4.50;;
2624;SDS011;1322;53.256;10.386;2023-04-06T07:00:11;6.17;;;4.50;;
2624;SDS011;1322;53.256;10.386;2023-04-06T07:02:38;5.80;;;4.63;;
2624;SDS011;1322;53.256;10.386;2023-04-06T07:05:04;6.70;;;4.50;;
2624;SDS011;1322;53.256;10.386;2023-04-06T07:07:33;5.60;;;4.60;;
2624;SDS011;1322;53.256;10.386;2023-04-06T07:09:59;5.13;;;4.03;;
2624;SDS011;1322;53.256;10.386;2023-04-06T07:12:25;7.30;;;4.80;;
2624;SDS011;1322;53.256;10.386;2023-04-06T07:14:51;5.63;;;5.07;;
2624;SDS011;1322;53.256;10.386;2023-04-06T07:17:17;8.57;;;4.73;;
2624;SDS011;1322;53.256;10.386;2023-04-06T07:19:42;13.90;;;8.97;;
2624;SDS011;1322;53.256;10.386;2023-04-06T07:22:08;7.77;;;4.90;;
2624;SDS011;1322;53.256;10.386;2023-04-06T07:24:34;7.10;;;4.70;;
2624;SDS011;1322;53.256;10.386;2023-04-06T07:27:00;5.80;;;4.53;;
2624;SDS011;1322;53.256;10.386;2023-04-06T07:29:26;6.47;;;4.30;;
2624;SDS011;1322;53.256;10.386;2023-04-06T07:31:52;7.23;;;4.17;;
2624;SDS011;1322;53.256;10.386;2023-04-06T07:34:18;5.10;;;4.60;;
2624;SDS011;1322;53.256;10.386;2023-04-06T07:36:44;4.77;;;4.33;;
2624;SDS011;1322;53.256;10.386;2023-04-06T07:39:10;10.10;;;4.50;;
2624;SDS011;1322;53.256;10.386;2023-04-06T07:41:35;5.80;;;4.20;;
2624;SDS011;1322;53.256;10.386;2023-04-06T07:44:01;5.07;;;4.10;;
2624;SDS011;1322;53.256;10.386;2023-04-06T07:46:28;5.37;;;4.30;;
2624;SDS011;1322;53.256;10.386;2023-04-06T07:48:53;7.73;;;5.40;;
2624;SDS011;1322;53.256;10.386;2023-04-06T07:51:19;5.30;;;3.60;;
2624;SDS011;1322;53.256;10.386;2023-04-06T07:53:45;6.47;;;4.60;;
2624;SDS011;1322;53.256;10.386;2023-04-06T07:56:10;7.63;;;4.20;;
2624;SDS011;1322;53.256;10.386;2023-04-06T07:58:37;6.03;;;4.20;;
2624;SDS011;1322;53.256;10.386;2023-04-06T08:01:03;6.53;;;4.57;;
2624;SDS011;1322;53.256;10.386;2023-04-06T08:03:28;4.93;;;3.80;;
2624;SDS011;1322;53.256;10.386;2023-04-06T08:05:54;5.93;;;4.33;;
2624;SDS011;1322;53.256;10.386;2023-04-06T08:08:20;7.33;;;4.60;;
2624;SDS011;1322;53.256;10.386;2023-04-06T08:10:47;4.83;;;4.03;;
2624;SDS011;1322;53.256;10.386;2023-04-06T08:13:13;7.03;;;4.80;;
2624;SDS011;1322;53.256;10.386;2023-04-06T08:15:40;4.70;;;4.20;;
2624;SDS011;1322;53.256;10.386;2023-04-06T08:18:05;8.83;;;4.37;;
2624;SDS011;1322;53.256;10.386;2023-04-06T08:20:31;4.57;;;4.07;;
2624;SDS011;1322;53.256;10.386;2023-04-06T08:22:57;18.10;;;10.23;;
2624;SDS011;1322;53.256;10.386;2023-04-06T08:25:22;5.83;;;4.63;;
2624;SDS011;1322;53.256;10.386;2023-04-06T08:27:48;5.77;;;3.70;;
2624;SDS011;1322;53.256;10.386;2023-04-06T08:30:14;6.70;;;3.73;;
2624;SDS011;1322;53.256;10.386;2023-04-06T08:32:44;5.37;;;4.30;;
2624;SDS011;1322;53.256;10.386;2023-04-06T08:35:10;7.17;;;4.50;;
2624;SDS011;1322;53.256;10.386;2023-04-06T08:37:37;5.83;;;4.20;;
2624;SDS011;1322;53.256;10.386;2023-04-06T08:40:02;9.13;;;4.37;;
2624;SDS011;1322;53.256;10.386;2023-04-06T08:42:31;5.93;;;3.53;;
2624;SDS011;1322;53.256;10.386;2023-04-06T08:44:58;5.70;;;4.03;;
2624;SDS011;1322;53.256;10.386;2023-04-06T08:47:25;8.53;;;4.50;;
2624;SDS011;1322;53.256;10.386;2023-04-06T08:49:52;5.93;;;3.17;;
2624;SDS011;1322;53.256;10.386;2023-04-06T08:52:19;6.00;;;3.73;;
2624;SDS011;1322;53.256;10.386;2023-04-06T08:54:45;4.93;;;3.20;;
2624;SDS011;1322;53.256;10.386;2023-04-06T08:57:12;4.70;;;3.23;;
2624;SDS011;1322;53.256;10.386;2023-04-06T08:59:38;7.03;;;3.83;;
2624;SDS011;1322;53.256;10.386;2023-04-06T09:02:08;3.90;;;3.00;;
2624;SDS011;1322;53.256;10.386;2023-04-06T09:04:40;5.73;;;3.33;;
2624;SDS011;1322;53.256;10.386;2023-04-06T09:07:06;6.17;;;3.80;;
2624;SDS011;1322;53.256;10.386;2023-04-06T09:09:32;5.60;;;4.00;;
2624;SDS011;1322;53.256;10.386;2023-04-06T09:11:58;5.00;;;3.70;;
2624;SDS011;1322;53.256;10.386;2023-04-06T09:14:34;4.77;;;3.97;;
2624;SDS011;1322;53.256;10.386;2023-04-06T09:17:04;5.37;;;3.67;;
2624;SDS011;1322;53.256;10.386;2023-04-06T09:19:30;4.53;;;3.80;;
2624;SDS011;1322;53.256;10.386;2023-04-06T09:22:05;4.90;;;4.50;;
2624;SDS011;1322;53.256;10.386;2023-04-06T09:24:47;6.00;;;4.20;;
2624;SDS011;1322;53.256;10.386;2023-04-06T09:27:14;5.20;;;4.07;;
2624;SDS011;1322;53.256;10.386;2023-04-06T09:29:40;6.00;;;4.00;;
2624;SDS011;1322;53.256;10.386;2023-04-06T09:32:08;6.07;;;3.87;;
2624;SDS011;1322;53.256;10.386;2023-04-06T09:34:41;4.70;;;4.20;;
2624;SDS011;1322;53.256;10.386;2023-04-06T09:37:17;7.43;;;6.60;;
2624;SDS011;1322;53.256;10.386;2023-04-06T09:39:44;6.37;;;4.80;;
2624;SDS011;1322;53.256;10.386;2023-04-06T09:42:22;7.47;;;5.13;;
2624;SDS011;1322;53.256;10.386;2023-04-06T09:44:49;7.13;;;5.20;;
2624;SDS011;1322;53.256;10.386;2023-04-06T09:47:15;6.13;;;5.00;;
2624;SDS011;1322;53.256;10.386;2023-04-06T09:49:43;8.10;;;5.30;;
2624;SDS011;1322;53.256;10.386;2023-04-06T09:52:10;6.53;;;4.87;;
2624;SDS011;1322;53.256;10.386;2023-04-06T09:54:37;8.00;;;5.03;;
2624;SDS011;1322;53.256;10.386;2023-04-06T10:07:57;8.17;;;5.30;;
2624;SDS011;1322;53.256;10.386;2023-04-06T10:10:30;5.77;;;5.17;;
2624;SDS011;1322;53.256;10.386;2023-04-06T10:12:55;6.57;;;5.37;;
2624;SDS011;1322;53.256;10.386;2023-04-06T10:15:21;7.40;;;5.77;;
2624;SDS011;1322;53.256;10.386;2023-04-06T10:17:47;8.07;;;5.33;;
2624;SDS011;1322;53.256;10.386;2023-04-06T10:22:53;12.70;;;5.93;;
2624;SDS011;1322;53.256;10.386;2023-04-06T10:25:52;6.87;;;6.10;;
2624;SDS011;1322;53.256;10.386;2023-04-06T10:28:19;7.07;;;5.47;;
2624;SDS011;1322;53.256;10.386;2023-04-06T10:30:45;10.43;;;5.43;;
2624;SDS011;1322;53.256;10.386;2023-04-06T10:33:17;8.40;;;6.23;;
2624;SDS011;1322;53.256;10.386;2023-04-06T10:35:45;7.53;;;5.50;;
2624;SDS011;1322;53.256;10.386;2023-04-06T10:38:11;6.90;;;5.57;;
2624;SDS011;1322;53.256;10.386;2023-04-06T10:40:39;6.10;;;5.50;;
2624;SDS011;1322;53.256;10.386;2023-04-06T10:43:07;7.50;;;5.00;;
2624;SDS011;1322;53.256;10.386;2023-04-06T10:45:37;6.57;;;5.07;;
2624;SDS011;1322;53.256;10.386;2023-04-06T10:48:17;8.03;;;6.03;;
2624;SDS011;1322;53.256;10.386;2023-04-06T10:50:47;6.50;;;5.90;;
2624;SDS011;1322;53.256;10.386;2023-04-06T10:53:24;8.37;;;5.60;;
2624;SDS011;1322;53.256;10.386;2023-04-06T10:55:51;7.60;;;6.00;;
2624;SDS011;1322;53.256;10.386;2023-04-06T10:58:23;6.10;;;5.50;;
2624;SDS011;1322;53.256;10.386;2023-04-06T11:00:50;10.40;;;6.07;;
2624;SDS011;1322;53.256;10.386;2023-04-06T11:03:16;6.30;;;5.53;;
2624;SDS011;1322;53.256;10.386;2023-04-06T11:05:43;6.93;;;6.23;;
2624;SDS011;1322;53.256;10.386;2023-04-06T11:11:04;5.80;;;5.20;;
2624;SDS011;1322;53.256;10.386;2023-04-06T11:16:16;7.67;;;6.13;;
2624;SDS011;1322;53.256;10.386;2023-04-06T11:21:34;6.67;;;5.50;;
2624;SDS011;1322;53.256;10.386;2023-04-06T11:24:07;9.90;;;5.60;;
2624;SDS011;1322;53.256;10.386;2023-04-06T11:26:37;7.27;;;6.07;;
2624;SDS011;1322;53.256;10.386;2023-04-06T11:29:23;6.50;;;5.83;;
2624;SDS011;1322;53.256;10.386;2023-04-06T11:31:52;7.83;;;6.30;;
2624;SDS011;1322;53.256;10.386;2023-04-06T11:34:19;7.37;;;6.13;;
2624;SDS011;1322;53.256;10.386;2023-04-06T11:36:49;8.77;;;6.30;;
2624;SDS011;1322;53.256;10.386;2023-04-06T11:39:22;9.73;;;5.93;;
2624;SDS011;1322;53.256;10.386;2023-04-06T11:41:50;8.40;;;6.57;;
2624;SDS011;1322;53.256;10.386;2023-04-06T11:44:31;7.73;;;6.07;;
2624;SDS011;1322;53.256;10.386;2023-04-06T11:47:01;9.00;;;6.57;;
2624;SDS011;1322;53.256;10.386;2023-04-06T11:49:28;10.03;;;5.87;;
2624;SDS011;1322;53.256;10.386;2023-04-06T11:51:55;9.20;;;6.70;;
2624;SDS011;1322;53.256;10.386;2023-04-06T11:54:35;10.00;;;6.50;;
2624;SDS011;1322;53.256;10.386;2023-04-06T11:57:02;7.30;;;6.60;;
2624;SDS011;1322;53.256;10.386;2023-04-06T11:59:30;10.13;;;6.83;;
2624;SDS011;1322;53.256;10.386;2023-04-06T12:01:59;8.10;;;6.70;;
2624;SDS011;1322;53.256;10.386;2023-04-06T12:04:26;8.73;;;6.10;;
2624;SDS011;1322;53.256;10.386;2023-04-06T12:06:51;9.67;;;7.60;;
2624;SDS011;1322;53.256;10.386;2023-04-06T12:09:17;10.00;;;5.53;;
2624;SDS011;1322;53.256;10.386;2023-04-06T12:11:43;9.63;;;7.70;;
2624;SDS011;1322;53.256;10.386;2023-04-06T12:14:09;7.40;;;6.60;;
2624;SDS011;1322;53.256;10.386;2023-04-06T12:16:35;9.13;;;7.03;;
2624;SDS011;1322;53.256;10.386;2023-04-06T12:19:01;8.30;;;7.40;;
2624;SDS011;1322;53.256;10.386;2023-04-06T12:21:27;8.20;;;7.30;;
2624;SDS011;1322;53.256;10.386;2023-04-06T12:23:53;7.90;;;7.10;;
2624;SDS011;1322;53.256;10.386;2023-04-06T12:26:19;9.00;;;6.90;;
2624;SDS011;1322;53.256;10.386;2023-04-06T12:28:46;9.27;;;7.40;;
2624;SDS011;1322;53.256;10.386;2023-04-06T12:31:18;8.57;;;7.40;;
2624;SDS011;1322;53.256;10.386;2023-04-06T12:33:50;11.10;;;8.37;;
2624;SDS011;1322;53.256;10.386;2023-04-06T12:36:17;10.10;;;8.27;;
2624;SDS011;1322;53.256;10.386;2023-04-06T12:38:45;12.03;;;7.40;;
2624;SDS011;1322;53.256;10.386;2023-04-06T12:41:13;9.13;;;7.63;;
2624;SDS011;1322;53.256;10.386;2023-04-06T12:43:40;14.30;;;7.13;;
2624;SDS011;1322;53.256;10.386;2023-04-06T12:46:07;8.33;;;6.87;;
2624;SDS011;1322;53.256;10.386;2023-04-06T12:48:34;11.63;;;6.93;;
2624;SDS011;1322;53.256;10.386;2023-04-06T12:51:02;13.77;;;7.63;;
2624;SDS011;1322;53.256;10.386;2023-04-06T12:53:32;10.00;;;7.27;;
2624;SDS011;1322;53.256;10.386;2023-04-06T12:55:58;12.00;;;8.70;;
2624;SDS011;1322;53.256;10.386;2023-04-06T12:58:25;8.10;;;7.17;;
2624;SDS011;1322;53.256;10.386;2023-04-06T13:00:52;9.10;;;7.93;;
2624;SDS011;1322;53.256;10.386;2023-04-06T13:03:18;10.00;;;7.37;;
2624;SDS011;1322;53.256;10.386;2023-04-06T13:05:45;9.70;;;7.50;;
2624;SDS011;1322;53.256;10.386;2023-04-06T13:08:15;8.00;;;6.77;;
2624;SDS011;1322;53.256;10.386;2023-04-06T13:10:48;9.20;;;7.90;;
2624;SDS011;1322;53.256;10.386;2023-04-06T13:13:15;10.03;;;7.77;;
2624;SDS011;1322;53.256;10.386;2023-04-06T13:15:41;10.20;;;7.17;;
2624;SDS011;1322;53.256;10.386;2023-04-06T13:18:07;8.80;;;7.23;;
2624;SDS011;1322;53.256;10.386;2023-04-06T13:20:34;11.60;;;7.90;;
2624;SDS011;1322;53.256;10.386;2023-04-06T13:23:00;12.40;;;8.93;;
2624;SDS011;1322;53.256;10.386;2023-04-06T13:25:25;10.00;;;7.70;;
2624;SDS011;1322;53.256;10.386;2023-04-06T13:27:51;10.80;;;7.33;;
2624;SDS011;1322;53.256;10.386;2023-04-06T13:30:17;9.10;;;8.07;;
2624;SDS011;1322;53.256;10.386;2023-04-06T13:32:42;11.73;;;7.90;;
2624;SDS011;1322;53.256;10.386;2023-04-06T13:35:08;9.27;;;7.60;;
2624;SDS011;1322;53.256;10.386;2023-04-06T13:37:34;9.80;;;7.50;;
2624;SDS011;1322;53.256;10.386;2023-04-06T13:40:01;10.83;;;7.90;;
2624;SDS011;1322;53.256;10.386;2023-04-06T13:42:27;8.50;;;7.23;;
2624;SDS011;1322;53.256;10.386;2023-04-06T13:44:53;8.43;;;7.53;;
2624;SDS011;1322;53.256;10.386;2023-04-06T13:47:19;9.90;;;7.60;;
2624;SDS011;1322;53.256;10.386;2023-04-06T13:49:46;10.40;;;8.37;;
2624;SDS011;1322;53.256;10.386;2023-04-06T13:52:11;11.50;;;8.10;;
2624;SDS011;1322;53.256;10.386;2023-04-06T13:54:37;13.07;;;8.50;;
2624;SDS011;1322;53.256;10.386;2023-04-06T13:57:03;14.33;;;7.47;;
2624;SDS011;1322;53.256;10.386;2023-04-06T13:59:36;8.20;;;7.30;;
2624;SDS011;1322;53.256;10.386;2023-04-06T14:02:03;10.67;;;7.60;;
2624;SDS011;1322;53.256;10.386;2023-04-06T14:04:30;10.07;;;7.37;;
2624;SDS011;1322;53.256;10.386;2023-04-06T14:06:59;12.60;;;8.20;;
2624;SDS011;1322;53.256;10.386;2023-04-06T14:09:25;8.43;;;6.87;;
2624;SDS011;1322;53.256;10.386;2023-04-06T14:11:52;10.40;;;8.40;;
2624;SDS011;1322;53.256;10.386;2023-04-06T14:14:17;8.80;;;7.37;;
2624;SDS011;1322;53.256;10.386;2023-04-06T14:16:43;8.83;;;7.40;;
2624;SDS011;1322;53.256;10.386;2023-04-06T14:19:10;8.47;;;6.57;;
2624;SDS011;1322;53.256;10.386;2023-04-06T14:21:40;8.43;;;6.93;;
2624;SDS011;1322;53.256;10.386;2023-04-06T14:24:09;10.63;;;7.10;;
2624;SDS011;1322;53.256;10.386;2023-04-06T14:26:36;12.97;;;8.23;;
2624;SDS011;1322;53.256;10.386;2023-04-06T14:29:03;9.73;;;8.30;;
2624;SDS011;1322;53.256;10.386;2023-04-06T14:31:29;8.07;;;7.23;;
2624;SDS011;1322;53.256;10.386;2023-04-06T14:33:55;10.80;;;7.73;;
2624;SDS011;1322;53.256;10.386;2023-04-06T14:36:21;8.50;;;7.17;;
2624;SDS011;1322;53.256;10.386;2023-04-06T14:38:47;7.80;;;7.10;;
2624;SDS011;1322;53.256;10.386;2023-04-06T14:41:16;10.40;;;8.33;;
2624;SDS011;1322;53.256;10.386;2023-04-06T14:43:43;9.80;;;7.03;;
2624;SDS011;1322;53.256;10.386;2023-04-06T14:46:11;9.33;;;8.37;;
2624;SDS011;1322;53.256;10.386;2023-04-06T14:48:37;8.87;;;7.27;;
2624;SDS011;1322;53.256;10.386;2023-04-06T14:51:02;9.00;;;7.30;;
2624;SDS011;1322;53.256;10.386;2023-04-06T14:53:28;8.87;;;7.07;;
2624;SDS011;1322;53.256;10.386;2023-04-06T14:55:54;8.50;;;7.30;;
2624;SDS011;1322;53.256;10.386;2023-04-06T14:58:21;8.93;;;7.90;;
2624;SDS011;1322;53.256;10.386;2023-04-06T15:00:48;17.23;;;6.63;;
2624;SDS011;1322;53.256;10.386;2023-04-06T15:03:14;8.67;;;7.57;;
2624;SDS011;1322;53.256;10.386;2023-04-06T15:05:43;9.70;;;8.07;;
2624;SDS011;1322;53.256;10.386;2023-04-06T15:08:09;7.80;;;7.00;;
2624;SDS011;1322;53.256;10.386;2023-04-06T15:10:35;7.93;;;6.60;;
2624;SDS011;1322;53.256;10.386;2023-04-06T15:13:04;9.80;;;7.77;;
2624;SDS011;1322;53.256;10.386;2023-04-06T15:15:30;9.87;;;8.27;;
2624;SDS011;1322;53.256;10.386;2023-04-06T15:17:55;8.23;;;6.87;;